sensor_id;sensor_type;location;lat;lon;timestamp;P1;durP1;ratioP1;P2;durP2;ratioP2
38318;SDS011;24121;53.536;10.224;2022-09-23T15:47:14;3.08;;;1.50;;
38318;SDS011;24121;53.536;10.224;2022-09-23T15:49:42;4.38;;;1.80;;
38318;SDS011;24121;53.536;10.224;2022-09-23T15:52:10;4.10;;;1.80;;
38318;SDS011;24121;53.536;10.224;2022-09-23T15:54:36;2.42;;;1.60;;
38318;SDS011;24121;53.536;10.224;2022-09-23T15:57:01;2.83;;;1.48;;
38318;SDS011;24121;53.536;10.224;2022-09-23T15:59:27;3.58;;;1.48;;
38318;SDS011;24121;53.536;10.224;2022-09-23T16:01:55;2.45;;;1.40;;
38318;SDS011;24121;53.536;10.224;2022-09-23T16:04:22;3.67;;;1.58;;
38318;SDS011;24121;53.536;10.224;2022-09-23T16:06:47;1.33;;;1.23;;
38318;SDS011;24121;53.536;10.224;2022-09-23T16:09:13;1.45;;;1.30;;
38318;SDS011;24121;53.536;10.224;2022-09-23T16:11:42;3.10;;;1.80;;
38318;SDS011;24121;53.536;10.224;2022-09-23T16:14:10;2.67;;;1.77;;
38318;SDS011;24121;53.536;10.224;2022-09-23T16:16:37;1.95;;;1.30;;
38318;SDS011;24121;53.536;10.224;2022-09-23T16:19:02;2.83;;;1.70;;
38318;SDS011;24121;53.536;10.224;2022-09-23T16:21:28;1.70;;;1.45;;
38318;SDS011;24121;53.536;10.224;2022-09-23T16:23:53;1.52;;;1.42;;
38318;SDS011;24121;53.536;10.224;2022-09-23T16:28:49;3.10;;;1.60;;
38318;SDS011;24121;53.536;10.224;2022-09-23T16:31:15;1.92;;;1.52;;
38318;SDS011;24121;53.536;10.224;2022-09-23T16:33:41;2.50;;;1.50;;
38318;SDS011;24121;53.536;10.224;2022-09-23T16:36:21;2.65;;;1.92;;
38318;SDS011;24121;53.536;10.224;2022-09-23T16:38:48;2.45;;;1.95;;
38318;SDS011;24121;53.536;10.224;2022-09-23T16:41:13;2.97;;;1.80;;
38318;SDS011;24121;53.536;10.224;2022-09-23T16:43:39;4.38;;;1.90;;
38318;SDS011;24121;53.536;10.224;2022-09-23T16:46:11;2.78;;;1.52;;
38318;SDS011;24121;53.536;10.224;2022-09-23T16:48:38;4.13;;;1.92;;
38318;SDS011;24121;53.536;10.224;2022-09-23T16:51:04;2.05;;;1.70;;
38318;SDS011;24121;53.536;10.224;2022-09-23T16:53:30;2.45;;;1.88;;
38318;SDS011;24121;53.536;10.224;2022-09-23T16:55:55;4.20;;;2.10;;
38318;SDS011;24121;53.536;10.224;2022-09-23T16:58:22;4.00;;;1.65;;
38318;SDS011;24121;53.536;10.224;2022-09-23T17:00:48;2.70;;;1.90;;
38318;SDS011;24121;53.536;10.224;2022-09-23T17:03:32;3.40;;;2.00;;
38318;SDS011;24121;53.536;10.224;2022-09-23T17:06:07;2.95;;;1.83;;
38318;SDS011;24121;53.536;10.224;2022-09-23T17:08:36;3.05;;;2.05;;
38318;SDS011;24121;53.536;10.224;2022-09-23T17:11:01;2.50;;;1.85;;
38318;SDS011;24121;53.536;10.224;2022-09-23T17:13:27;3.25;;;2.03;;
38318;SDS011;24121;53.536;10.224;2022-09-23T17:15:53;2.88;;;1.92;;
38318;SDS011;24121;53.536;10.224;2022-09-23T17:18:26;3.67;;;2.03;;
38318;SDS011;24121;53.536;10.224;2022-09-23T17:21:03;2.40;;;2.20;;
38318;SDS011;24121;53.536;10.224;2022-09-23T17:23:31;8.27;;;5.63;;
38318;SDS011;24121;53.536;10.224;2022-09-23T17:25:57;10.52;;;6.43;;
38318;SDS011;24121;53.536;10.224;2022-09-23T17:28:26;8.75;;;5.88;;
38318;SDS011;24121;53.536;10.224;2022-09-23T17:30:56;10.93;;;7.57;;
38318;SDS011;24121;53.536;10.224;2022-09-23T17:33:22;11.38;;;7.28;;
38318;SDS011;24121;53.536;10.224;2022-09-23T17:35:48;13.43;;;8.20;;
38318;SDS011;24121;53.536;10.224;2022-09-23T17:38:13;10.52;;;7.05;;
38318;SDS011;24121;53.536;10.224;2022-09-23T17:40:38;12.98;;;8.00;;
38318;SDS011;24121;53.536;10.224;2022-09-23T17:43:04;21.55;;;11.07;;
38318;SDS011;24121;53.536;10.224;2022-09-23T17:45:30;14.95;;;9.70;;
38318;SDS011;24121;53.536;10.224;2022-09-23T17:47:55;18.95;;;10.60;;
38318;SDS011;24121;53.536;10.224;2022-09-23T17:50:20;14.00;;;9.63;;
38318;SDS011;24121;53.536;10.224;2022-09-23T17:52:48;15.57;;;10.02;;
38318;SDS011;24121;53.536;10.224;2022-09-23T17:55:14;11.82;;;8.18;;
38318;SDS011;24121;53.536;10.224;2022-09-23T17:57:40;12.20;;;8.15;;
38318;SDS011;24121;53.536;10.224;2022-09-23T18:00:06;10.95;;;7.75;;
38318;SDS011;24121;53.536;10.224;2022-09-23T18:02:33;11.48;;;7.50;;
38318;SDS011;24121;53.536;10.224;2022-09-23T18:04:59;9.73;;;6.97;;
38318;SDS011;24121;53.536;10.224;2022-09-23T18:07:24;11.35;;;7.18;;
38318;SDS011;24121;53.536;10.224;2022-09-23T18:09:49;12.00;;;7.32;;
38318;SDS011;24121;53.536;10.224;2022-09-23T18:12:15;7.82;;;6.53;;
38318;SDS011;24121;53.536;10.224;2022-09-23T18:14:40;7.97;;;5.93;;
38318;SDS011;24121;53.536;10.224;2022-09-23T18:17:07;8.20;;;6.13;;
38318;SDS011;24121;53.536;10.224;2022-09-23T18:19:32;8.15;;;6.18;;
38318;SDS011;24121;53.536;10.224;2022-09-23T18:21:58;8.95;;;6.57;;
38318;SDS011;24121;53.536;10.224;2022-09-23T18:24:25;8.25;;;6.05;;
38318;SDS011;24121;53.536;10.224;2022-09-23T18:26:50;7.90;;;5.97;;
38318;SDS011;24121;53.536;10.224;2022-09-23T18:29:16;5.97;;;5.20;;
38318;SDS011;24121;53.536;10.224;2022-09-23T18:31:43;9.63;;;5.43;;
38318;SDS011;24121;53.536;10.224;2022-09-23T18:34:10;6.75;;;5.30;;
38318;SDS011;24121;53.536;10.224;2022-09-23T18:36:36;8.00;;;5.15;;
38318;SDS011;24121;53.536;10.224;2022-09-23T18:39:02;7.05;;;5.20;;
38318;SDS011;24121;53.536;10.224;2022-09-23T18:41:28;6.32;;;5.15;;
38318;SDS011;24121;53.536;10.224;2022-09-23T18:43:54;6.47;;;5.60;;
38318;SDS011;24121;53.536;10.224;2022-09-23T18:46:20;6.30;;;5.70;;
38318;SDS011;24121;53.536;10.224;2022-09-23T18:48:46;8.18;;;5.72;;
38318;SDS011;24121;53.536;10.224;2022-09-23T18:51:31;7.03;;;6.28;;
38318;SDS011;24121;53.536;10.224;2022-09-23T18:53:59;7.20;;;6.25;;
38318;SDS011;24121;53.536;10.224;2022-09-23T18:56:26;7.03;;;5.95;;
38318;SDS011;24121;53.536;10.224;2022-09-23T18:58:53;6.30;;;5.50;;
38318;SDS011;24121;53.536;10.224;2022-09-23T19:01:20;7.38;;;6.15;;
38318;SDS011;24121;53.536;10.224;2022-09-23T19:03:46;6.95;;;6.05;;
38318;SDS011;24121;53.536;10.224;2022-09-23T19:06:16;6.10;;;5.60;;
38318;SDS011;24121;53.536;10.224;2022-09-23T19:08:42;7.05;;;5.95;;
38318;SDS011;24121;53.536;10.224;2022-09-23T19:11:08;6.47;;;5.80;;
38318;SDS011;24121;53.536;10.224;2022-09-23T19:13:36;6.70;;;5.50;;
38318;SDS011;24121;53.536;10.224;2022-09-23T19:16:03;8.13;;;6.18;;
38318;SDS011;24121;53.536;10.224;2022-09-23T19:18:33;6.45;;;5.80;;
38318;SDS011;24121;53.536;10.224;2022-09-23T19:20:59;7.70;;;5.70;;
38318;SDS011;24121;53.536;10.224;2022-09-23T19:23:25;6.85;;;5.75;;
38318;SDS011;24121;53.536;10.224;2022-09-23T19:25:52;8.25;;;5.80;;
38318;SDS011;24121;53.536;10.224;2022-09-23T19:28:17;8.98;;;5.90;;
38318;SDS011;24121;53.536;10.224;2022-09-23T19:30:43;7.13;;;5.75;;
38318;SDS011;24121;53.536;10.224;2022-09-23T19:33:08;6.35;;;5.38;;
38318;SDS011;24121;53.536;10.224;2022-09-23T19:35:34;7.75;;;5.40;;
38318;SDS011;24121;53.536;10.224;2022-09-23T19:38:10;8.25;;;6.07;;
38318;SDS011;24121;53.536;10.224;2022-09-23T19:40:36;6.97;;;5.60;;
38318;SDS011;24121;53.536;10.224;2022-09-23T19:43:01;7.28;;;6.05;;
38318;SDS011;24121;53.536;10.224;2022-09-23T19:45:28;8.27;;;5.90;;
38318;SDS011;24121;53.536;10.224;2022-09-23T19:47:56;7.18;;;5.80;;
38318;SDS011;24121;53.536;10.224;2022-09-23T19:50:22;7.70;;;5.63;;
38318;SDS011;24121;53.536;10.224;2022-09-23T19:52:47;6.22;;;5.32;;
38318;SDS011;24121;53.536;10.224;2022-09-23T19:55:18;5.93;;;5.22;;
38318;SDS011;24121;53.536;10.224;2022-09-23T19:57:44;6.30;;;5.43;;
38318;SDS011;24121;53.536;10.224;2022-09-23T20:00:10;6.35;;;5.05;;
38318;SDS011;24121;53.536;10.224;2022-09-23T20:02:38;7.85;;;5.13;;
38318;SDS011;24121;53.536;10.224;2022-09-23T20:05:04;9.20;;;5.55;;
38318;SDS011;24121;53.536;10.224;2022-09-23T20:07:30;7.82;;;5.07;;
38318;SDS011;24121;53.536;10.224;2022-09-23T20:09:55;6.22;;;4.72;;
38318;SDS011;24121;53.536;10.224;2022-09-23T20:12:20;6.03;;;4.78;;
38318;SDS011;24121;53.536;10.224;2022-09-23T20:14:46;7.97;;;5.00;;
38318;SDS011;24121;53.536;10.224;2022-09-23T20:17:11;6.75;;;5.10;;
38318;SDS011;24121;53.536;10.224;2022-09-23T20:19:37;5.53;;;4.78;;
38318;SDS011;24121;53.536;10.224;2022-09-23T20:22:02;6.90;;;4.80;;
38318;SDS011;24121;53.536;10.224;2022-09-23T20:24:46;7.22;;;5.38;;
38318;SDS011;24121;53.536;10.224;2022-09-23T20:27:12;7.85;;;5.78;;
38318;SDS011;24121;53.536;10.224;2022-09-23T20:29:37;10.00;;;5.82;;
38318;SDS011;24121;53.536;10.224;2022-09-23T20:32:02;7.15;;;6.15;;
38318;SDS011;24121;53.536;10.224;2022-09-23T20:34:28;8.77;;;6.07;;
38318;SDS011;24121;53.536;10.224;2022-09-23T20:36:54;7.55;;;5.97;;
38318;SDS011;24121;53.536;10.224;2022-09-23T20:39:20;9.25;;;6.35;;
38318;SDS011;24121;53.536;10.224;2022-09-23T20:41:45;9.18;;;6.05;;
38318;SDS011;24121;53.536;10.224;2022-09-23T20:44:12;8.70;;;6.40;;
38318;SDS011;24121;53.536;10.224;2022-09-23T20:46:37;8.73;;;6.82;;
38318;SDS011;24121;53.536;10.224;2022-09-23T20:49:03;8.65;;;6.82;;
38318;SDS011;24121;53.536;10.224;2022-09-23T20:51:31;7.75;;;6.05;;
38318;SDS011;24121;53.536;10.224;2022-09-23T20:53:57;7.78;;;5.97;;
38318;SDS011;24121;53.536;10.224;2022-09-23T20:56:23;7.72;;;6.28;;
38318;SDS011;24121;53.536;10.224;2022-09-23T20:58:49;8.13;;;6.28;;
38318;SDS011;24121;53.536;10.224;2022-09-23T21:01:17;8.05;;;5.78;;
38318;SDS011;24121;53.536;10.224;2022-09-23T21:03:44;8.50;;;6.40;;
38318;SDS011;24121;53.536;10.224;2022-09-23T21:06:11;6.82;;;6.10;;
38318;SDS011;24121;53.536;10.224;2022-09-23T21:08:38;7.25;;;6.05;;
38318;SDS011;24121;53.536;10.224;2022-09-23T21:11:05;8.48;;;5.85;;
38318;SDS011;24121;53.536;10.224;2022-09-23T21:13:32;10.15;;;6.63;;
38318;SDS011;24121;53.536;10.224;2022-09-23T21:16:04;7.25;;;6.47;;
38318;SDS011;24121;53.536;10.224;2022-09-23T21:18:32;9.15;;;5.75;;
38318;SDS011;24121;53.536;10.224;2022-09-23T21:20:59;8.73;;;6.53;;
38318;SDS011;24121;53.536;10.224;2022-09-23T21:23:28;9.27;;;6.82;;
38318;SDS011;24121;53.536;10.224;2022-09-23T21:28:31;8.40;;;6.93;;
38318;SDS011;24121;53.536;10.224;2022-09-23T21:31:01;9.30;;;6.32;;
38318;SDS011;24121;53.536;10.224;2022-09-23T21:35:53;8.38;;;5.80;;
38318;SDS011;24121;53.536;10.224;2022-09-23T21:38:19;7.85;;;6.40;;
38318;SDS011;24121;53.536;10.224;2022-09-23T21:40:45;10.55;;;5.95;;
38318;SDS011;24121;53.536;10.224;2022-09-23T21:43:19;7.22;;;5.78;;
38318;SDS011;24121;53.536;10.224;2022-09-23T21:45:45;8.77;;;6.30;;
38318;SDS011;24121;53.536;10.224;2022-09-23T21:48:11;7.68;;;6.57;;
38318;SDS011;24121;53.536;10.224;2022-09-23T21:50:36;6.93;;;6.00;;
38318;SDS011;24121;53.536;10.224;2022-09-23T21:53:04;9.30;;;6.03;;
38318;SDS011;24121;53.536;10.224;2022-09-23T21:55:31;7.40;;;6.55;;
38318;SDS011;24121;53.536;10.224;2022-09-23T21:57:56;9.77;;;6.13;;
38318;SDS011;24121;53.536;10.224;2022-09-23T22:00:21;7.30;;;6.25;;
38318;SDS011;24121;53.536;10.224;2022-09-23T22:02:47;7.72;;;6.72;;
38318;SDS011;24121;53.536;10.224;2022-09-23T22:05:12;10.25;;;6.30;;
38318;SDS011;24121;53.536;10.224;2022-09-23T22:07:38;9.07;;;6.82;;
38318;SDS011;24121;53.536;10.224;2022-09-23T22:10:03;6.50;;;5.90;;
38318;SDS011;24121;53.536;10.224;2022-09-23T22:12:29;7.80;;;6.28;;
38318;SDS011;24121;53.536;10.224;2022-09-23T22:14:55;7.65;;;6.93;;
38318;SDS011;24121;53.536;10.224;2022-09-23T22:17:20;8.30;;;7.38;;
38318;SDS011;24121;53.536;10.224;2022-09-23T22:19:46;7.60;;;6.35;;
38318;SDS011;24121;53.536;10.224;2022-09-23T22:22:13;9.98;;;7.60;;
38318;SDS011;24121;53.536;10.224;2022-09-23T22:24:40;8.60;;;6.80;;
38318;SDS011;24121;53.536;10.224;2022-09-23T22:27:06;7.88;;;6.65;;
38318;SDS011;24121;53.536;10.224;2022-09-23T22:29:32;9.32;;;6.70;;
38318;SDS011;24121;53.536;10.224;2022-09-23T22:32:16;6.97;;;6.28;;
38318;SDS011;24121;53.536;10.224;2022-09-23T22:35:17;8.30;;;6.35;;
38318;SDS011;24121;53.536;10.224;2022-09-23T22:37:43;9.55;;;6.63;;
38318;SDS011;24121;53.536;10.224;2022-09-23T22:40:10;7.80;;;6.70;;
38318;SDS011;24121;53.536;10.224;2022-09-23T22:42:40;7.15;;;6.45;;
38318;SDS011;24121;53.536;10.224;2022-09-23T22:45:06;7.22;;;6.53;;
38318;SDS011;24121;53.536;10.224;2022-09-23T22:47:33;7.97;;;6.80;;
38318;SDS011;24121;53.536;10.224;2022-09-23T22:50:05;7.53;;;6.32;;
38318;SDS011;24121;53.536;10.224;2022-09-23T22:52:32;6.68;;;6.00;;
38318;SDS011;24121;53.536;10.224;2022-09-23T22:54:57;6.95;;;6.25;;
38318;SDS011;24121;53.536;10.224;2022-09-23T22:57:23;7.53;;;6.63;;
38318;SDS011;24121;53.536;10.224;2022-09-23T22:59:49;8.05;;;6.72;;
38318;SDS011;24121;53.536;10.224;2022-09-23T23:02:14;7.18;;;6.47;;
38318;SDS011;24121;53.536;10.224;2022-09-23T23:04:41;8.63;;;7.13;;
38318;SDS011;24121;53.536;10.224;2022-09-23T23:07:09;7.63;;;6.45;;
38318;SDS011;24121;53.536;10.224;2022-09-23T23:09:37;9.02;;;6.53;;
38318;SDS011;24121;53.536;10.224;2022-09-23T23:12:03;9.80;;;6.35;;
38318;SDS011;24121;53.536;10.224;2022-09-23T23:14:29;6.78;;;6.07;;
38318;SDS011;24121;53.536;10.224;2022-09-23T23:16:55;6.82;;;6.13;;
38318;SDS011;24121;53.536;10.224;2022-09-23T23:19:21;8.23;;;6.88;;
38318;SDS011;24121;53.536;10.224;2022-09-23T23:21:48;6.57;;;5.82;;
38318;SDS011;24121;53.536;10.224;2022-09-23T23:24:18;6.82;;;6.03;;
38318;SDS011;24121;53.536;10.224;2022-09-23T23:26:45;7.45;;;6.18;;
38318;SDS011;24121;53.536;10.224;2022-09-23T23:29:11;7.13;;;6.43;;
38318;SDS011;24121;53.536;10.224;2022-09-23T23:31:37;7.88;;;5.75;;
38318;SDS011;24121;53.536;10.224;2022-09-23T23:34:02;6.18;;;5.55;;
38318;SDS011;24121;53.536;10.224;2022-09-23T23:36:28;5.95;;;5.35;;
38318;SDS011;24121;53.536;10.224;2022-09-23T23:38:55;7.70;;;6.00;;
38318;SDS011;24121;53.536;10.224;2022-09-23T23:41:21;6.57;;;5.88;;
38318;SDS011;24121;53.536;10.224;2022-09-23T23:43:47;6.55;;;5.82;;
38318;SDS011;24121;53.536;10.224;2022-09-23T23:46:19;6.47;;;5.93;;
38318;SDS011;24121;53.536;10.224;2022-09-23T23:48:44;6.88;;;5.85;;
38318;SDS011;24121;53.536;10.224;2022-09-23T23:51:12;6.15;;;5.55;;
38318;SDS011;24121;53.536;10.224;2022-09-23T23:53:38;8.63;;;5.88;;
38318;SDS011;24121;53.536;10.224;2022-09-23T23:56:08;6.65;;;5.38;;
38318;SDS011;24121;53.536;10.224;2022-09-23T23:58:35;7.72;;;7.03;;
